sensor_id;sensor_type;location;lat;lon;timestamp;pressure;altitude;pressure_sealevel;temperature;humidity
23616;BME280;11985;49.404;7.734;2023-02-21T00:01:06;97797.28;;;4.23;100.00
23616;BME280;11985;49.404;7.734;2023-02-21T00:06:27;97798.66;;;4.36;100.00
23616;BME280;11985;49.404;7.734;2023-02-21T00:11:46;97783.06;;;4.44;100.00
23616;BME280;11985;49.404;7.734;2023-02-21T00:17:05;97786.38;;;4.54;100.00
23616;BME280;11985;49.404;7.734;2023-02-21T00:22:26;97782.34;;;4.60;100.00
23616;BME280;11985;49.404;7.734;2023-02-21T00:27:45;97788.25;;;4.70;100.00
23616;BME280;11985;49.404;7.734;2023-02-21T00:33:04;97795.09;;;4.71;100.00
23616;BME280;11985;49.404;7.734;2023-02-21T00:38:25;97800.53;;;4.78;100.00
23616;BME280;11985;49.404;7.734;2023-02-21T00:43:44;97784.03;;;4.77;100.00
23616;BME280;11985;49.404;7.734;2023-02-21T00:49:04;97782.53;;;4.66;100.00
23616;BME280;11985;49.404;7.734;2023-02-21T00:54:24;97778.88;;;4.51;100.00
23616;BME280;11985;49.404;7.734;2023-02-21T00:59:44;97775.91;;;4.46;100.00
23616;BME280;11985;49.404;7.734;2023-02-21T01:05:04;97764.75;;;4.36;100.00
23616;BME280;11985;49.404;7.734;2023-02-21T01:10:25;97762.25;;;4.26;100.00
23616;BME280;11985;49.404;7.734;2023-02-21T01:15:44;97756.47;;;4.14;100.00
23616;BME280;11985;49.404;7.734;2023-02-21T01:21:04;97754.72;;;3.97;100.00
23616;BME280;11985;49.404;7.734;2023-02-21T01:26:24;97751.56;;;3.85;100.00
23616;BME280;11985;49.404;7.734;2023-02-21T01:31:44;97742.78;;;3.68;100.00
23616;BME280;11985;49.404;7.734;2023-02-21T01:37:03;97742.34;;;3.55;100.00
23616;BME280;11985;49.404;7.734;2023-02-21T01:42:23;97738.34;;;3.43;100.00
23616;BME280;11985;49.404;7.734;2023-02-21T01:47:42;97725.09;;;3.36;100.00
23616;BME280;11985;49.404;7.734;2023-02-21T01:53:04;97725.03;;;3.46;100.00
23616;BME280;11985;49.404;7.734;2023-02-21T01:58:28;97722.47;;;3.54;100.00
23616;BME280;11985;49.404;7.734;2023-02-21T02:03:48;97722.78;;;3.51;100.00
23616;BME280;11985;49.404;7.734;2023-02-21T02:09:15;97716.84;;;3.41;100.00
23616;BME280;11985;49.404;7.734;2023-02-21T02:14:59;97712.22;;;3.35;100.00
23616;BME280;11985;49.404;7.734;2023-02-21T02:26:12;97726.50;;;3.31;100.00
23616;BME280;11985;49.404;7.734;2023-02-21T02:31:39;97725.63;;;3.40;100.00
23616;BME280;11985;49.404;7.734;2023-02-21T02:36:46;97720.91;;;3.43;100.00
23616;BME280;11985;49.404;7.734;2023-02-21T02:41:54;97725.69;;;3.30;100.00
23616;BME280;11985;49.404;7.734;2023-02-21T02:47:00;97707.69;;;3.19;100.00
23616;BME280;11985;49.404;7.734;2023-02-21T02:52:07;97701.00;;;3.16;100.00
23616;BME280;11985;49.404;7.734;2023-02-21T02:57:10;97712.69;;;3.12;100.00
23616;BME280;11985;49.404;7.734;2023-02-21T03:02:29;97708.50;;;3.02;100.00
23616;BME280;11985;49.404;7.734;2023-02-21T03:07:42;97701.72;;;2.91;100.00
23616;BME280;11985;49.404;7.734;2023-02-21T03:12:52;97707.31;;;2.96;100.00
23616;BME280;11985;49.404;7.734;2023-02-21T03:17:58;97704.31;;;2.91;100.00
23616;BME280;11985;49.404;7.734;2023-02-21T03:23:03;97697.59;;;2.88;100.00
23616;BME280;11985;49.404;7.734;2023-02-21T03:28:06;97688.91;;;2.80;100.00
23616;BME280;11985;49.404;7.734;2023-02-21T03:33:08;97697.34;;;2.64;100.00
23616;BME280;11985;49.404;7.734;2023-02-21T03:38:11;97692.63;;;2.50;100.00
23616;BME280;11985;49.404;7.734;2023-02-21T03:43:12;97714.16;;;2.42;100.00
23616;BME280;11985;49.404;7.734;2023-02-21T03:48:14;97705.97;;;2.37;100.00
23616;BME280;11985;49.404;7.734;2023-02-21T03:53:17;97721.31;;;2.30;100.00
23616;BME280;11985;49.404;7.734;2023-02-21T03:58:19;97712.31;;;2.25;100.00
23616;BME280;11985;49.404;7.734;2023-02-21T04:03:20;97718.22;;;2.17;100.00
23616;BME280;11985;49.404;7.734;2023-02-21T04:08:23;97724.97;;;2.00;100.00
23616;BME280;11985;49.404;7.734;2023-02-21T04:13:25;97705.84;;;1.92;100.00
23616;BME280;11985;49.404;7.734;2023-02-21T04:18:26;97715.69;;;1.88;100.00
23616;BME280;11985;49.404;7.734;2023-02-21T04:23:29;97705.44;;;1.77;100.00
23616;BME280;11985;49.404;7.734;2023-02-21T04:28:31;97706.41;;;1.76;100.00
23616;BME280;11985;49.404;7.734;2023-02-21T04:33:32;97711.50;;;1.68;100.00
23616;BME280;11985;49.404;7.734;2023-02-21T04:38:36;97710.53;;;1.69;100.00
23616;BME280;11985;49.404;7.734;2023-02-21T04:43:40;97711.34;;;1.69;100.00
23616;BME280;11985;49.404;7.734;2023-02-21T04:48:43;97708.03;;;1.77;100.00
23616;BME280;11985;49.404;7.734;2023-02-21T04:53:47;97707.06;;;1.88;100.00
23616;BME280;11985;49.404;7.734;2023-02-21T04:58:49;97702.25;;;2.02;100.00
23616;BME280;11985;49.404;7.734;2023-02-21T05:03:51;97695.66;;;2.18;100.00
23616;BME280;11985;49.404;7.734;2023-02-21T05:08:55;97697.94;;;2.21;100.00
23616;BME280;11985;49.404;7.734;2023-02-21T05:13:57;97702.19;;;2.22;100.00
23616;BME280;11985;49.404;7.734;2023-02-21T05:18:58;97695.09;;;2.24;100.00
23616;BME280;11985;49.404;7.734;2023-02-21T05:24:03;97693.69;;;2.29;100.00
23616;BME280;11985;49.404;7.734;2023-02-21T05:29:05;97696.19;;;2.49;100.00
23616;BME280;11985;49.404;7.734;2023-02-21T05:34:06;97677.50;;;2.63;100.00
23616;BME280;11985;49.404;7.734;2023-02-21T05:39:10;97683.06;;;2.78;100.00
23616;BME280;11985;49.404;7.734;2023-02-21T05:44:11;97678.31;;;2.91;100.00
23616;BME280;11985;49.404;7.734;2023-02-21T05:49:13;97679.78;;;2.94;100.00
23616;BME280;11985;49.404;7.734;2023-02-21T05:54:18;97681.56;;;2.93;100.00
23616;BME280;11985;49.404;7.734;2023-02-21T05:59:20;97692.56;;;2.87;100.00
23616;BME280;11985;49.404;7.734;2023-02-21T06:04:22;97689.34;;;2.75;100.00
23616;BME280;11985;49.404;7.734;2023-02-21T06:09:25;97695.19;;;2.59;100.00
23616;BME280;11985;49.404;7.734;2023-02-21T06:14:27;97685.94;;;2.47;100.00
23616;BME280;11985;49.404;7.734;2023-02-21T06:19:28;97691.97;;;2.48;100.00
23616;BME280;11985;49.404;7.734;2023-02-21T06:24:31;97691.72;;;2.41;100.00
23616;BME280;11985;49.404;7.734;2023-02-21T06:29:33;97697.19;;;2.38;100.00
23616;BME280;11985;49.404;7.734;2023-02-21T06:34:34;97694.91;;;2.35;100.00
23616;BME280;11985;49.404;7.734;2023-02-21T06:39:38;97694.03;;;2.17;100.00
23616;BME280;11985;49.404;7.734;2023-02-21T06:44:42;97688.72;;;1.99;100.00
23616;BME280;11985;49.404;7.734;2023-02-21T06:49:43;97701.59;;;2.00;100.00
23616;BME280;11985;49.404;7.734;2023-02-21T06:54:48;97696.25;;;2.02;100.00
23616;BME280;11985;49.404;7.734;2023-02-21T06:59:50;97709.06;;;2.13;100.00
23616;BME280;11985;49.404;7.734;2023-02-21T07:04:51;97693.16;;;2.26;100.00
23616;BME280;11985;49.404;7.734;2023-02-21T07:09:54;97699.13;;;2.36;100.00
23616;BME280;11985;49.404;7.734;2023-02-21T07:14:56;97698.59;;;2.32;100.00
23616;BME280;11985;49.404;7.734;2023-02-21T07:19:57;97686.97;;;2.27;100.00
23616;BME280;11985;49.404;7.734;2023-02-21T07:25:00;97694.34;;;2.31;100.00
23616;BME280;11985;49.404;7.734;2023-02-21T07:30:02;97689.31;;;2.30;100.00
23616;BME280;11985;49.404;7.734;2023-02-21T07:35:04;97693.84;;;2.28;100.00
23616;BME280;11985;49.404;7.734;2023-02-21T07:40:08;97692.81;;;2.38;100.00
23616;BME280;11985;49.404;7.734;2023-02-21T07:45:10;97694.03;;;2.44;100.00
23616;BME280;11985;49.404;7.734;2023-02-21T07:50:12;97690.69;;;2.61;100.00
23616;BME280;11985;49.404;7.734;2023-02-21T07:55:16;97690.66;;;2.89;100.00
23616;BME280;11985;49.404;7.734;2023-02-21T08:00:18;97689.31;;;3.21;100.00
23616;BME280;11985;49.404;7.734;2023-02-21T08:05:24;97693.16;;;3.52;100.00
23616;BME280;11985;49.404;7.734;2023-02-21T08:10:27;97690.97;;;3.83;100.00
23616;BME280;11985;49.404;7.734;2023-02-21T08:15:29;97686.06;;;4.06;100.00
23616;BME280;11985;49.404;7.734;2023-02-21T08:20:31;97685.19;;;4.32;100.00
23616;BME280;11985;49.404;7.734;2023-02-21T08:25:34;97684.66;;;4.54;100.00
23616;BME280;11985;49.404;7.734;2023-02-21T08:30:35;97679.19;;;4.73;100.00
23616;BME280;11985;49.404;7.734;2023-02-21T08:35:39;97683.34;;;5.00;100.00
23616;BME280;11985;49.404;7.734;2023-02-21T08:40:42;97673.72;;;5.25;100.00
23616;BME280;11985;49.404;7.734;2023-02-21T08:45:44;97673.75;;;5.58;100.00
23616;BME280;11985;49.404;7.734;2023-02-21T08:50:46;97676.03;;;5.77;100.00
23616;BME280;11985;49.404;7.734;2023-02-21T08:55:48;97671.94;;;5.83;100.00
23616;BME280;11985;49.404;7.734;2023-02-21T09:00:50;97672.25;;;5.96;100.00
23616;BME280;11985;49.404;7.734;2023-02-21T09:05:52;97674.34;;;6.09;100.00
23616;BME280;11985;49.404;7.734;2023-02-21T09:10:55;97666.81;;;6.22;100.00
23616;BME280;11985;49.404;7.734;2023-02-21T09:16:00;97668.69;;;6.45;100.00
23616;BME280;11985;49.404;7.734;2023-02-21T09:21:02;97671.84;;;6.71;100.00
23616;BME280;11985;49.404;7.734;2023-02-21T09:26:05;97660.88;;;6.99;100.00
23616;BME280;11985;49.404;7.734;2023-02-21T09:31:07;97662.84;;;7.28;100.00
23616;BME280;11985;49.404;7.734;2023-02-21T09:36:09;97662.59;;;7.37;100.00
23616;BME280;11985;49.404;7.734;2023-02-21T09:41:13;97665.50;;;7.43;100.00
23616;BME280;11985;49.404;7.734;2023-02-21T09:46:17;97659.91;;;7.46;100.00
23616;BME280;11985;49.404;7.734;2023-02-21T09:51:21;97660.50;;;7.56;100.00
23616;BME280;11985;49.404;7.734;2023-02-21T09:56:27;97655.13;;;7.72;100.00
23616;BME280;11985;49.404;7.734;2023-02-21T10:01:41;97655.78;;;7.89;100.00
23616;BME280;11985;49.404;7.734;2023-02-21T10:06:50;97658.03;;;8.07;100.00
23616;BME280;11985;49.404;7.734;2023-02-21T10:12:07;97648.28;;;8.30;100.00
23616;BME280;11985;49.404;7.734;2023-02-21T10:17:16;97649.00;;;8.54;100.00
23616;BME280;11985;49.404;7.734;2023-02-21T10:22:21;97644.06;;;8.80;100.00
23616;BME280;11985;49.404;7.734;2023-02-21T10:27:25;97653.66;;;9.09;100.00
23616;BME280;11985;49.404;7.734;2023-02-21T10:32:27;97646.84;;;9.58;100.00
23616;BME280;11985;49.404;7.734;2023-02-21T10:37:34;97641.97;;;9.83;98.57
23616;BME280;11985;49.404;7.734;2023-02-21T10:42:42;97641.09;;;10.03;97.12
23616;BME280;11985;49.404;7.734;2023-02-21T10:47:53;97636.03;;;10.02;95.32
23616;BME280;11985;49.404;7.734;2023-02-21T10:52:56;97631.47;;;10.11;94.99
23616;BME280;11985;49.404;7.734;2023-02-21T10:58:06;97623.03;;;10.22;94.03
23616;BME280;11985;49.404;7.734;2023-02-21T11:03:14;97622.94;;;10.43;93.58
23616;BME280;11985;49.404;7.734;2023-02-21T11:08:34;97613.50;;;10.62;91.70
23616;BME280;11985;49.404;7.734;2023-02-21T11:13:38;97618.44;;;10.85;90.46
23616;BME280;11985;49.404;7.734;2023-02-21T11:18:40;97602.63;;;10.92;88.36
23616;BME280;11985;49.404;7.734;2023-02-21T11:23:46;97599.84;;;11.06;86.35
23616;BME280;11985;49.404;7.734;2023-02-21T11:28:51;97588.31;;;11.34;85.17
23616;BME280;11985;49.404;7.734;2023-02-21T11:33:56;97578.34;;;11.62;82.92
23616;BME280;11985;49.404;7.734;2023-02-21T11:39:04;97561.69;;;11.82;81.42
23616;BME280;11985;49.404;7.734;2023-02-21T11:44:23;97566.91;;;12.08;79.57
23616;BME280;11985;49.404;7.734;2023-02-21T11:49:35;97558.00;;;12.03;77.80
23616;BME280;11985;49.404;7.734;2023-02-21T11:54:38;97550.25;;;12.14;77.01
23616;BME280;11985;49.404;7.734;2023-02-21T11:59:45;97543.69;;;12.30;76.22
23616;BME280;11985;49.404;7.734;2023-02-21T12:05:02;97543.25;;;12.40;75.83
23616;BME280;11985;49.404;7.734;2023-02-21T12:10:29;97538.91;;;12.52;74.57
23616;BME280;11985;49.404;7.734;2023-02-21T12:15:43;97538.59;;;12.74;73.03
23616;BME280;11985;49.404;7.734;2023-02-21T12:21:04;97536.00;;;12.99;71.74
23616;BME280;11985;49.404;7.734;2023-02-21T12:26:20;97520.56;;;13.20;69.41
23616;BME280;11985;49.404;7.734;2023-02-21T12:31:39;97511.78;;;13.27;67.19
23616;BME280;11985;49.404;7.734;2023-02-21T12:36:57;97507.16;;;13.47;66.56
23616;BME280;11985;49.404;7.734;2023-02-21T12:42:23;97502.59;;;13.54;65.31
23616;BME280;11985;49.404;7.734;2023-02-21T12:47:31;97498.38;;;13.71;63.65
23616;BME280;11985;49.404;7.734;2023-02-21T12:52:39;97487.91;;;13.77;63.12
23616;BME280;11985;49.404;7.734;2023-02-21T12:57:47;97476.88;;;13.98;62.07
23616;BME280;11985;49.404;7.734;2023-02-21T13:02:57;97464.97;;;14.07;60.89
23616;BME280;11985;49.404;7.734;2023-02-21T13:08:04;97459.81;;;14.12;59.12
23616;BME280;11985;49.404;7.734;2023-02-21T13:13:10;97458.66;;;13.90;57.45
23616;BME280;11985;49.404;7.734;2023-02-21T13:18:18;97447.59;;;13.93;56.93
23616;BME280;11985;49.404;7.734;2023-02-21T13:23:41;97440.91;;;14.09;57.71
23616;BME280;11985;49.404;7.734;2023-02-21T13:29:13;97436.47;;;14.51;56.45
23616;BME280;11985;49.404;7.734;2023-02-21T13:34:21;97436.31;;;14.46;54.43
23616;BME280;11985;49.404;7.734;2023-02-21T13:39:28;97421.53;;;14.57;54.98
23616;BME280;11985;49.404;7.734;2023-02-21T13:44:33;97415.91;;;14.76;53.71
23616;BME280;11985;49.404;7.734;2023-02-21T13:49:41;97414.25;;;14.52;53.62
23616;BME280;11985;49.404;7.734;2023-02-21T14:00:45;97392.00;;;14.65;53.67
23616;BME280;11985;49.404;7.734;2023-02-21T14:11:36;97399.91;;;14.83;52.97
23616;BME280;11985;49.404;7.734;2023-02-21T14:16:46;97389.88;;;14.97;52.03
23616;BME280;11985;49.404;7.734;2023-02-21T14:21:50;97392.50;;;15.09;51.28
23616;BME280;11985;49.404;7.734;2023-02-21T14:27:01;97391.25;;;15.11;50.38
23616;BME280;11985;49.404;7.734;2023-02-21T14:32:24;97389.41;;;15.12;49.85
23616;BME280;11985;49.404;7.734;2023-02-21T14:37:32;97385.47;;;15.14;48.26
23616;BME280;11985;49.404;7.734;2023-02-21T14:42:44;97377.19;;;15.22;48.74
23616;BME280;11985;49.404;7.734;2023-02-21T14:48:09;97373.22;;;15.37;49.23
23616;BME280;11985;49.404;7.734;2023-02-21T14:53:37;97361.88;;;15.53;48.08
23616;BME280;11985;49.404;7.734;2023-02-21T14:58:58;97359.47;;;15.51;47.86
23616;BME280;11985;49.404;7.734;2023-02-21T15:04:09;97357.16;;;15.43;47.29
23616;BME280;11985;49.404;7.734;2023-02-21T15:09:18;97348.28;;;15.38;47.38
23616;BME280;11985;49.404;7.734;2023-02-21T15:14:23;97348.50;;;15.48;47.46
23616;BME280;11985;49.404;7.734;2023-02-21T15:19:29;97346.91;;;15.47;46.95
23616;BME280;11985;49.404;7.734;2023-02-21T15:24:30;97345.63;;;15.49;47.64
23616;BME280;11985;49.404;7.734;2023-02-21T15:29:34;97338.94;;;15.47;47.60
23616;BME280;11985;49.404;7.734;2023-02-21T15:34:39;97336.78;;;15.44;47.82
23616;BME280;11985;49.404;7.734;2023-02-21T15:39:43;97342.56;;;15.17;47.62
23616;BME280;11985;49.404;7.734;2023-02-21T15:44:51;97338.63;;;15.20;47.92
23616;BME280;11985;49.404;7.734;2023-02-21T15:49:59;97332.75;;;15.29;48.37
23616;BME280;11985;49.404;7.734;2023-02-21T15:55:13;97326.28;;;15.25;49.20
23616;BME280;11985;49.404;7.734;2023-02-21T16:00:19;97322.75;;;14.85;49.51
23616;BME280;11985;49.404;7.734;2023-02-21T16:05:25;97323.22;;;14.58;50.20
23616;BME280;11985;49.404;7.734;2023-02-21T16:10:27;97323.16;;;14.35;51.67
23616;BME280;11985;49.404;7.734;2023-02-21T16:15:32;97316.84;;;13.94;53.15
23616;BME280;11985;49.404;7.734;2023-02-21T16:20:36;97319.59;;;13.39;54.97
23616;BME280;11985;49.404;7.734;2023-02-21T16:25:54;97320.13;;;12.86;57.60
23616;BME280;11985;49.404;7.734;2023-02-21T16:30:59;97313.81;;;12.43;59.99
23616;BME280;11985;49.404;7.734;2023-02-21T16:36:05;97316.75;;;12.04;61.24
23616;BME280;11985;49.404;7.734;2023-02-21T16:41:11;97304.34;;;11.73;62.66
23616;BME280;11985;49.404;7.734;2023-02-21T16:46:14;97304.41;;;11.59;63.90
23616;BME280;11985;49.404;7.734;2023-02-21T16:51:16;97301.56;;;11.54;65.04
23616;BME280;11985;49.404;7.734;2023-02-21T16:56:19;97299.25;;;11.33;66.27
23616;BME280;11985;49.404;7.734;2023-02-21T17:01:26;97304.44;;;11.01;67.54
23616;BME280;11985;49.404;7.734;2023-02-21T17:06:28;97304.72;;;10.67;69.82
23616;BME280;11985;49.404;7.734;2023-02-21T17:11:30;97306.56;;;10.33;71.89
23616;BME280;11985;49.404;7.734;2023-02-21T17:16:33;97307.72;;;9.97;73.45
23616;BME280;11985;49.404;7.734;2023-02-21T17:21:34;97309.28;;;9.65;74.43
23616;BME280;11985;49.404;7.734;2023-02-21T17:26:37;97305.31;;;9.28;75.37
23616;BME280;11985;49.404;7.734;2023-02-21T17:31:40;97309.63;;;8.94;77.20
23616;BME280;11985;49.404;7.734;2023-02-21T17:36:42;97315.31;;;8.70;78.63
23616;BME280;11985;49.404;7.734;2023-02-21T17:41:44;97307.31;;;8.50;80.03
23616;BME280;11985;49.404;7.734;2023-02-21T17:46:48;97314.38;;;8.28;81.33
23616;BME280;11985;49.404;7.734;2023-02-21T17:51:51;97314.91;;;8.17;82.31
23616;BME280;11985;49.404;7.734;2023-02-21T17:56:53;97312.28;;;8.17;82.46
23616;BME280;11985;49.404;7.734;2023-02-21T18:01:55;97319.38;;;8.23;82.91
23616;BME280;11985;49.404;7.734;2023-02-21T18:06:57;97317.13;;;8.20;83.16
23616;BME280;11985;49.404;7.734;2023-02-21T18:11:59;97317.22;;;8.05;83.63
23616;BME280;11985;49.404;7.734;2023-02-21T18:17:02;97314.75;;;7.82;84.29
23616;BME280;11985;49.404;7.734;2023-02-21T18:22:03;97310.50;;;7.60;85.22
23616;BME280;11985;49.404;7.734;2023-02-21T18:27:05;97316.72;;;7.37;86.57
23616;BME280;11985;49.404;7.734;2023-02-21T18:32:08;97314.41;;;7.13;87.58
23616;BME280;11985;49.404;7.734;2023-02-21T18:37:09;97313.97;;;6.95;88.50
23616;BME280;11985;49.404;7.734;2023-02-21T18:42:11;97312.25;;;6.72;89.92
23616;BME280;11985;49.404;7.734;2023-02-21T18:47:14;97318.81;;;6.53;91.20
23616;BME280;11985;49.404;7.734;2023-02-21T18:52:16;97309.31;;;6.38;92.49
23616;BME280;11985;49.404;7.734;2023-02-21T18:57:20;97314.69;;;6.21;94.18
23616;BME280;11985;49.404;7.734;2023-02-21T19:02:23;97314.81;;;6.05;95.38
23616;BME280;11985;49.404;7.734;2023-02-21T19:07:25;97318.19;;;5.91;96.14
23616;BME280;11985;49.404;7.734;2023-02-21T19:12:27;97315.41;;;5.92;97.36
23616;BME280;11985;49.404;7.734;2023-02-21T19:17:30;97309.97;;;6.02;97.39
23616;BME280;11985;49.404;7.734;2023-02-21T19:22:32;97306.81;;;6.06;96.57
23616;BME280;11985;49.404;7.734;2023-02-21T19:27:33;97306.72;;;6.00;96.76
23616;BME280;11985;49.404;7.734;2023-02-21T19:32:37;97310.06;;;5.86;97.09
23616;BME280;11985;49.404;7.734;2023-02-21T19:37:38;97306.56;;;5.70;97.59
23616;BME280;11985;49.404;7.734;2023-02-21T19:42:40;97305.84;;;5.53;98.05
23616;BME280;11985;49.404;7.734;2023-02-21T19:47:43;97304.50;;;5.35;98.99
23616;BME280;11985;49.404;7.734;2023-02-21T19:52:50;97303.25;;;5.22;99.93
23616;BME280;11985;49.404;7.734;2023-02-21T19:57:52;97314.03;;;5.19;100.00
23616;BME280;11985;49.404;7.734;2023-02-21T20:02:54;97312.06;;;5.21;100.00
23616;BME280;11985;49.404;7.734;2023-02-21T20:07:56;97314.38;;;5.16;100.00
23616;BME280;11985;49.404;7.734;2023-02-21T20:12:58;97308.69;;;5.13;100.00
23616;BME280;11985;49.404;7.734;2023-02-21T20:18:03;97315.28;;;5.00;100.00
23616;BME280;11985;49.404;7.734;2023-02-21T20:23:04;97321.34;;;4.85;100.00
23616;BME280;11985;49.404;7.734;2023-02-21T20:28:07;97315.06;;;4.63;100.00
23616;BME280;11985;49.404;7.734;2023-02-21T20:33:10;97320.94;;;4.48;100.00
23616;BME280;11985;49.404;7.734;2023-02-21T20:38:11;97325.06;;;4.35;100.00
23616;BME280;11985;49.404;7.734;2023-02-21T20:43:13;97325.38;;;4.23;100.00
23616;BME280;11985;49.404;7.734;2023-02-21T20:48:16;97321.78;;;4.16;100.00
23616;BME280;11985;49.404;7.734;2023-02-21T20:53:18;97320.50;;;4.12;100.00
23616;BME280;11985;49.404;7.734;2023-02-21T20:58:20;97314.47;;;4.20;100.00
23616;BME280;11985;49.404;7.734;2023-02-21T21:03:23;97317.56;;;4.40;100.00
23616;BME280;11985;49.404;7.734;2023-02-21T21:08:28;97313.59;;;4.44;100.00
23616;BME280;11985;49.404;7.734;2023-02-21T21:13:30;97310.03;;;4.37;100.00
23616;BME280;11985;49.404;7.734;2023-02-21T21:18:33;97305.53;;;4.22;100.00
23616;BME280;11985;49.404;7.734;2023-02-21T21:23:34;97313.97;;;4.08;100.00
23616;BME280;11985;49.404;7.734;2023-02-21T21:28:36;97303.41;;;4.02;100.00
23616;BME280;11985;49.404;7.734;2023-02-21T21:33:39;97296.38;;;3.94;100.00
23616;BME280;11985;49.404;7.734;2023-02-21T21:38:41;97298.84;;;3.87;100.00
23616;BME280;11985;49.404;7.734;2023-02-21T21:43:43;97302.91;;;3.74;100.00
23616;BME280;11985;49.404;7.734;2023-02-21T21:48:47;97285.63;;;3.64;100.00
23616;BME280;11985;49.404;7.734;2023-02-21T21:53:48;97278.31;;;3.52;100.00
23616;BME280;11985;49.404;7.734;2023-02-21T21:58:50;97280.91;;;3.60;100.00
23616;BME280;11985;49.404;7.734;2023-02-21T22:03:52;97269.03;;;3.74;100.00
23616;BME280;11985;49.404;7.734;2023-02-21T22:08:54;97268.69;;;3.77;100.00
23616;BME280;11985;49.404;7.734;2023-02-21T22:13:56;97263.84;;;3.74;100.00
23616;BME280;11985;49.404;7.734;2023-02-21T22:18:58;97256.31;;;3.54;100.00
23616;BME280;11985;49.404;7.734;2023-02-21T22:24:01;97254.69;;;3.37;100.00
23616;BME280;11985;49.404;7.734;2023-02-21T22:29:02;97250.44;;;3.28;100.00
23616;BME280;11985;49.404;7.734;2023-02-21T22:34:06;97243.91;;;3.15;100.00
23616;BME280;11985;49.404;7.734;2023-02-21T22:39:08;97243.53;;;3.02;100.00
23616;BME280;11985;49.404;7.734;2023-02-21T22:44:11;97237.66;;;2.92;100.00
23616;BME280;11985;49.404;7.734;2023-02-21T22:49:14;97235.00;;;2.68;100.00
23616;BME280;11985;49.404;7.734;2023-02-21T22:54:16;97227.66;;;2.63;100.00
23616;BME280;11985;49.404;7.734;2023-02-21T22:59:19;97227.81;;;2.61;100.00
23616;BME280;11985;49.404;7.734;2023-02-21T23:04:24;97209.91;;;2.50;100.00
23616;BME280;11985;49.404;7.734;2023-02-21T23:09:28;97205.16;;;2.46;100.00
23616;BME280;11985;49.404;7.734;2023-02-21T23:14:29;97194.25;;;2.42;100.00
23616;BME280;11985;49.404;7.734;2023-02-21T23:19:35;97201.03;;;2.35;100.00
23616;BME280;11985;49.404;7.734;2023-02-21T23:24:36;97196.31;;;2.30;100.00
23616;BME280;11985;49.404;7.734;2023-02-21T23:29:38;97188.97;;;2.26;100.00
23616;BME280;11985;49.404;7.734;2023-02-21T23:34:41;97184.91;;;2.23;100.00
23616;BME280;11985;49.404;7.734;2023-02-21T23:39:42;97178.22;;;2.21;100.00
23616;BME280;11985;49.404;7.734;2023-02-21T23:44:45;97168.00;;;2.19;100.00
23616;BME280;11985;49.404;7.734;2023-02-21T23:49:51;97174.34;;;2.17;100.00
23616;BME280;11985;49.404;7.734;2023-02-21T23:54:57;97166.78;;;2.05;100.00
23616;BME280;11985;49.404;7.734;2023-02-21T23:59:59;97156.72;;;2.02;100.00
